createdAt,value
2023-02-05T00:01:28.677Z,0.17
2023-02-05T00:03:55.488Z,0.06
2023-02-05T00:06:22.364Z,-0.05
2023-02-05T00:08:49.124Z,-0.03
2023-02-05T00:11:15.973Z,-0.01
2023-02-05T00:13:43.408Z,0.02
2023-02-05T00:16:15.342Z,-0.05
2023-02-05T00:18:42.478Z,-0.07
2023-02-05T00:21:09.610Z,0.03
2023-02-05T00:23:37.183Z,-0.07
2023-02-05T00:26:05.979Z,-0.11
2023-02-05T00:28:34.613Z,-0.17
2023-02-05T00:31:06.616Z,-0.15
2023-02-05T00:33:33.423Z,-0.13
2023-02-05T00:36:00.161Z,-0.06
2023-02-05T00:38:26.929Z,-0.17
2023-02-05T00:40:53.645Z,-0.09
2023-02-05T00:43:20.550Z,-0.05
2023-02-05T00:45:47.456Z,-0.13
2023-02-05T00:48:14.328Z,-0.13
2023-02-05T00:50:41.134Z,-0.07
2023-02-05T00:53:08.038Z,-0.25
2023-02-05T00:55:37.042Z,-0.28
2023-02-05T00:58:03.798Z,-0.20
2023-02-05T01:00:30.976Z,-0.24
2023-02-05T01:02:57.781Z,-0.16
2023-02-05T01:05:24.651Z,-0.29
2023-02-05T01:07:51.539Z,-0.24
2023-02-05T01:10:18.448Z,-0.24
2023-02-05T01:12:45.231Z,-0.25
2023-02-05T01:15:13.251Z,-0.30
2023-02-05T01:17:40.649Z,-0.26
2023-02-05T01:20:08.831Z,-0.20
2023-02-05T01:22:35.559Z,-0.25
2023-02-05T01:25:02.910Z,-0.26
2023-02-05T01:27:29.790Z,-0.19
2023-02-05T01:29:56.513Z,-0.20
2023-02-05T01:32:23.206Z,-0.25
2023-02-05T01:34:50.157Z,-0.20
2023-02-05T01:37:16.954Z,-0.27
2023-02-05T01:39:44.192Z,-0.26
2023-02-05T01:42:21.842Z,-0.37
2023-02-05T01:45:37.786Z,-0.23
2023-02-05T01:48:05.883Z,-0.08
2023-02-05T01:50:42.965Z,-0.05
2023-02-05T01:53:18.385Z,-0.15
2023-02-05T01:55:54.005Z,-0.12
2023-02-05T01:58:21.020Z,-0.03
2023-02-05T02:00:48.170Z,-0.11
2023-02-05T02:03:15.975Z,-0.06
2023-02-05T02:05:42.965Z,0.05
2023-02-05T02:08:12.463Z,0.11
2023-02-05T02:10:42.133Z,0.09
2023-02-05T02:13:10.370Z,0.18
2023-02-05T02:15:37.966Z,0.09
2023-02-05T02:18:24.902Z,0.09
2023-02-05T02:21:16.461Z,0.15
2023-02-05T02:24:11.160Z,0.15
2023-02-05T02:27:22.566Z,0.24
2023-02-05T02:30:14.091Z,0.13
2023-02-05T02:33:03.124Z,0.19
2023-02-05T02:35:33.119Z,0.19
2023-02-05T02:38:13.000Z,0.22
2023-02-05T02:40:49.446Z,0.28
2023-02-05T02:43:25.155Z,0.19
2023-02-05T02:46:06.829Z,0.28
2023-02-05T02:48:37.914Z,0.17
2023-02-05T02:51:08.498Z,0.28
2023-02-05T02:53:40.140Z,0.25
2023-02-05T02:56:12.024Z,0.30
2023-02-05T02:58:52.130Z,0.25
2023-02-05T03:01:23.181Z,0.22
2023-02-05T03:03:58.790Z,0.27
2023-02-05T03:06:28.206Z,0.16
2023-02-05T03:09:03.191Z,0.19
2023-02-05T03:11:30.442Z,0.20
2023-02-05T03:13:57.717Z,0.20
2023-02-05T03:16:26.981Z,0.12
2023-02-05T03:18:56.041Z,0.26
2023-02-05T03:21:41.292Z,0.11
2023-02-05T03:24:08.655Z,0.12
2023-02-05T03:26:36.133Z,0.27
2023-02-05T03:29:13.248Z,0.22
2023-02-05T03:31:49.366Z,0.19
2023-02-05T03:34:35.107Z,0.12
2023-02-05T03:37:18.373Z,0.10
2023-02-05T03:40:06.228Z,0.18
2023-02-05T03:43:03.810Z,0.23
2023-02-05T03:45:45.915Z,0.17
2023-02-05T03:48:37.122Z,0.23
2023-02-05T03:51:03.822Z,0.18
2023-02-05T03:53:39.928Z,0.19
2023-02-05T03:56:13.571Z,0.18
2023-02-05T03:58:43.766Z,0.18
2023-02-05T04:01:12.252Z,0.18
2023-02-05T04:03:39.639Z,0.09
2023-02-05T04:06:07.489Z,0.18
2023-02-05T04:08:34.222Z,0.06
2023-02-05T04:11:01.126Z,0.10
2023-02-05T04:13:27.837Z,0.11
2023-02-05T04:15:54.557Z,0.19
2023-02-05T04:18:21.426Z,0.23
2023-02-05T04:20:48.144Z,0.23
2023-02-05T04:23:14.862Z,0.21
2023-02-05T04:25:42.369Z,0.18
2023-02-05T04:28:10.240Z,0.23
2023-02-05T04:30:37.094Z,0.14
2023-02-05T04:33:03.840Z,0.30
2023-02-05T04:35:30.601Z,0.21
2023-02-05T04:37:57.322Z,0.15
2023-02-05T04:40:23.992Z,0.24
2023-02-05T04:42:50.618Z,0.22
2023-02-05T04:45:17.373Z,0.28
2023-02-05T04:47:44.151Z,0.34
2023-02-05T04:50:10.991Z,0.23
2023-02-05T04:52:37.726Z,0.30
2023-02-05T04:55:04.869Z,0.35
2023-02-05T04:57:31.634Z,0.37
2023-02-05T04:59:58.376Z,0.43
2023-02-05T05:02:25.214Z,0.41
2023-02-05T05:04:52.000Z,0.38
2023-02-05T05:07:18.644Z,0.40
2023-02-05T05:09:45.339Z,0.49
2023-02-05T05:12:12.134Z,0.37
2023-02-05T05:14:39.016Z,0.37
2023-02-05T05:17:05.717Z,0.30
2023-02-05T05:19:32.421Z,0.37
2023-02-05T05:21:59.329Z,0.36
2023-02-05T05:24:25.981Z,0.32
2023-02-05T05:26:52.658Z,0.43
2023-02-05T05:29:19.407Z,0.60
2023-02-05T05:31:46.124Z,0.68
2023-02-05T05:34:12.790Z,0.55
2023-02-05T05:36:43.626Z,0.56
2023-02-05T05:39:29.564Z,0.43
2023-02-05T05:42:14.912Z,0.33
2023-02-05T05:44:41.716Z,0.51
2023-02-05T05:47:08.422Z,0.38
2023-02-05T05:49:35.225Z,0.52
2023-02-05T05:52:01.913Z,0.48
2023-02-05T05:54:28.671Z,0.46
2023-02-05T05:56:55.404Z,0.51
2023-02-05T05:59:22.113Z,0.46
2023-02-05T06:01:48.822Z,0.42
2023-02-05T06:04:15.531Z,0.53
2023-02-05T06:06:42.649Z,0.47
2023-02-05T06:09:09.448Z,0.47
2023-02-05T06:11:36.162Z,0.53
2023-02-05T06:14:02.828Z,0.49
2023-02-05T06:16:29.638Z,0.52
2023-02-05T06:18:56.686Z,0.54
2023-02-05T06:21:23.454Z,0.56
2023-02-05T06:23:50.248Z,0.65
2023-02-05T06:26:17.120Z,0.60
2023-02-05T06:28:43.842Z,0.56
2023-02-05T06:31:10.705Z,0.56
2023-02-05T06:33:37.500Z,0.58
2023-02-05T06:36:04.620Z,0.60
2023-02-05T06:38:31.927Z,0.70
2023-02-05T06:40:58.606Z,0.70
2023-02-05T06:43:25.331Z,0.67
2023-02-05T06:45:52.245Z,0.57
2023-02-05T06:48:19.193Z,0.65
2023-02-05T06:50:46.774Z,0.69
2023-02-05T06:53:13.593Z,0.73
2023-02-05T06:55:40.885Z,0.76
2023-02-05T06:58:08.034Z,0.65
2023-02-05T07:00:35.820Z,0.69
2023-02-05T07:03:02.631Z,0.69
2023-02-05T07:05:29.504Z,0.72
2023-02-05T07:07:56.291Z,0.75
2023-02-05T07:10:23.079Z,0.84
2023-02-05T07:12:49.762Z,0.81
2023-02-05T07:15:16.492Z,0.78
2023-02-05T07:17:43.149Z,0.88
2023-02-05T07:20:10.516Z,0.77
2023-02-05T07:22:37.263Z,0.75
2023-02-05T07:25:04.831Z,0.97
2023-02-05T07:27:31.648Z,0.90
2023-02-05T07:29:58.400Z,0.86
2023-02-05T07:32:25.099Z,0.83
2023-02-05T07:34:51.797Z,0.73
2023-02-05T07:37:20.507Z,0.88
2023-02-05T07:39:47.997Z,0.88
2023-02-05T07:42:14.718Z,0.75
2023-02-05T07:44:41.336Z,0.91
2023-02-05T07:47:08.060Z,0.99
2023-02-05T07:49:34.856Z,0.97
2023-02-05T07:52:01.663Z,0.98
2023-02-05T07:54:28.338Z,1.07
2023-02-05T07:56:55.413Z,0.98
2023-02-05T07:59:22.273Z,1.04
2023-02-05T08:01:48.984Z,1.01
2023-02-05T08:04:15.732Z,1.09
2023-02-05T08:06:43.173Z,1.10
2023-02-05T08:09:10.981Z,1.08
2023-02-05T08:11:37.632Z,1.12
2023-02-05T08:14:04.303Z,1.05
2023-02-05T08:16:31.008Z,1.14
2023-02-05T08:18:57.764Z,1.24
2023-02-05T08:21:24.870Z,1.17
2023-02-05T08:23:51.570Z,1.32
2023-02-05T08:26:18.816Z,1.33
2023-02-05T08:28:46.157Z,1.27
2023-02-05T08:31:15.637Z,1.32
2023-02-05T08:33:42.827Z,1.28
2023-02-05T08:36:10.254Z,1.33
2023-02-05T08:38:36.925Z,1.39
2023-02-05T08:41:12.570Z,1.40
2023-02-05T08:43:45.116Z,1.44
2023-02-05T08:46:14.511Z,1.46
2023-02-05T08:48:41.837Z,1.56
2023-02-05T08:51:12.897Z,1.47
2023-02-05T08:53:40.593Z,1.48
2023-02-05T08:56:10.558Z,1.57
2023-02-05T08:58:38.253Z,1.57
2023-02-05T09:01:07.965Z,1.56
2023-02-05T09:03:34.690Z,1.49
2023-02-05T09:06:05.315Z,1.59
2023-02-05T09:08:32.319Z,1.60
2023-02-05T09:10:58.993Z,1.66
2023-02-05T09:13:25.879Z,1.66
2023-02-05T09:15:52.638Z,1.63
2023-02-05T09:18:19.730Z,1.58
2023-02-05T09:20:48.733Z,1.66
2023-02-05T09:23:17.421Z,1.67
2023-02-05T09:25:44.482Z,1.64
2023-02-05T09:28:13.282Z,1.67
2023-02-05T09:30:42.372Z,1.53
2023-02-05T09:33:10.470Z,1.52
2023-02-05T09:35:39.746Z,1.50
2023-02-05T09:38:06.857Z,1.69
2023-02-05T09:41:10.162Z,1.72
2023-02-05T09:43:57.820Z,1.71
2023-02-05T09:46:39.563Z,1.63
2023-02-05T09:49:35.524Z,1.69
2023-02-05T09:52:27.343Z,1.72
2023-02-05T09:55:26.017Z,1.70
2023-02-05T09:58:03.570Z,1.80
2023-02-05T10:00:42.936Z,1.75
2023-02-05T10:03:16.104Z,1.79
2023-02-05T10:06:05.683Z,1.92
2023-02-05T10:08:48.682Z,1.83
2023-02-05T10:11:23.433Z,1.89
2023-02-05T10:14:05.158Z,1.97
2023-02-05T10:16:36.919Z,1.95
2023-02-05T10:19:39.943Z,1.95
2023-02-05T10:22:11.018Z,1.95
2023-02-05T10:24:40.670Z,1.87
2023-02-05T10:27:21.506Z,1.84
2023-02-05T10:29:57.290Z,1.86
2023-02-05T10:32:29.754Z,1.81
2023-02-05T10:35:09.407Z,1.98
2023-02-05T10:37:47.927Z,1.93
2023-02-05T10:40:21.518Z,1.89
2023-02-05T10:43:09.442Z,1.97
2023-02-05T10:45:36.335Z,1.94
2023-02-05T10:48:37.531Z,1.92
2023-02-05T10:51:07.116Z,1.94
2023-02-05T10:53:33.960Z,1.88
2023-02-05T10:56:02.637Z,1.96
2023-02-05T10:58:48.222Z,1.97
2023-02-05T11:01:18.664Z,2.09
2023-02-05T11:04:07.469Z,2.11
2023-02-05T11:06:44.434Z,2.24
2023-02-05T11:09:37.386Z,2.31
2023-02-05T11:12:19.693Z,2.44
2023-02-05T11:14:57.718Z,2.42
2023-02-05T11:17:37.090Z,2.46
2023-02-05T11:20:07.220Z,2.34
2023-02-05T11:22:39.877Z,2.28
2023-02-05T11:25:17.490Z,2.23
2023-02-05T11:28:20.282Z,2.31
2023-02-05T11:30:51.182Z,2.31
2023-02-05T11:33:21.941Z,2.12
2023-02-05T11:35:58.428Z,2.26
2023-02-05T11:38:31.058Z,2.42
2023-02-05T11:41:00.950Z,2.17
2023-02-05T11:43:32.126Z,2.15
2023-02-05T11:46:00.535Z,2.17
2023-02-05T11:48:59.500Z,2.01
2023-02-05T11:51:47.223Z,1.95
2023-02-05T11:54:27.162Z,2.11
2023-02-05T11:57:19.710Z,2.22
2023-02-05T12:00:00.830Z,2.15
2023-02-05T12:02:30.379Z,2.29
2023-02-05T12:05:23.907Z,2.19
2023-02-05T12:08:07.566Z,2.17
2023-02-05T12:10:51.450Z,2.20
2023-02-05T12:13:55.349Z,2.23
2023-02-05T12:16:46.270Z,2.28
2023-02-05T12:19:30.928Z,2.30
2023-02-05T12:22:16.596Z,2.31
2023-02-05T12:24:49.668Z,2.07
2023-02-05T12:27:44.118Z,2.17
2023-02-05T12:30:32.058Z,2.23
2023-02-05T12:33:29.787Z,2.29
2023-02-05T12:36:21.505Z,2.35
2023-02-05T12:39:08.137Z,2.21
2023-02-05T12:41:37.692Z,2.23
2023-02-05T12:44:38.277Z,2.26
2023-02-05T12:47:31.301Z,2.23
2023-02-05T12:50:32.542Z,2.23
2023-02-05T12:53:17.686Z,2.13
2023-02-05T12:56:03.182Z,2.17
2023-02-05T12:58:42.190Z,2.06
2023-02-05T13:01:14.819Z,2.03
2023-02-05T13:03:51.370Z,2.00
2023-02-05T13:06:28.340Z,2.04
2023-02-05T13:09:09.030Z,2.06
2023-02-05T13:11:43.601Z,2.16
2023-02-05T13:14:21.738Z,2.02
2023-02-05T13:16:56.430Z,2.03
2023-02-05T13:19:34.082Z,1.97
2023-02-05T13:22:54.241Z,1.93
2023-02-05T13:25:56.312Z,1.91
2023-02-05T13:29:13.923Z,2.19
2023-02-05T13:31:48.162Z,2.10
2023-02-05T13:34:16.783Z,2.05
2023-02-05T13:37:31.245Z,2.16
2023-02-05T13:40:22.310Z,2.29
2023-02-05T13:43:00.672Z,2.41
2023-02-05T13:46:01.422Z,2.38
2023-02-05T13:48:40.333Z,2.30
2023-02-05T13:51:06.904Z,2.19
2023-02-05T13:53:55.068Z,2.18
2023-02-05T13:56:37.016Z,2.15
2023-02-05T13:59:35.843Z,2.26
2023-02-05T14:02:03.906Z,2.04
2023-02-05T14:04:42.297Z,1.98
2023-02-05T14:07:19.348Z,1.96
2023-02-05T14:09:56.304Z,1.99
2023-02-05T14:12:26.867Z,1.94
2023-02-05T14:15:15.535Z,2.02
2023-02-05T14:17:42.152Z,2.01
2023-02-05T14:20:31.760Z,2.03
2023-02-05T14:23:04.195Z,2.17
2023-02-05T14:25:41.428Z,2.02
2023-02-05T14:28:17.409Z,2.02
2023-02-05T14:31:00.328Z,1.94
2023-02-05T14:33:43.076Z,2.02
2023-02-05T14:36:22.702Z,2.02
2023-02-05T14:39:00.900Z,2.03
2023-02-05T14:41:50.383Z,1.93
2023-02-05T14:44:30.262Z,1.93
2023-02-05T14:47:29.451Z,2.03
2023-02-05T14:50:06.026Z,2.04
2023-02-05T14:52:34.781Z,2.07
2023-02-05T14:55:07.625Z,2.12
2023-02-05T14:57:51.996Z,2.12
2023-02-05T15:00:28.044Z,2.13
2023-02-05T15:03:19.752Z,2.06
2023-02-05T15:05:46.816Z,2.02
2023-02-05T15:08:32.331Z,2.05
2023-02-05T15:11:26.410Z,2.04
2023-02-05T15:14:35.469Z,2.02
2023-02-05T15:17:05.162Z,1.97
2023-02-05T15:19:42.838Z,1.98
2023-02-05T15:22:26.440Z,1.93
2023-02-05T15:24:54.744Z,1.97
2023-02-05T15:27:26.498Z,1.95
2023-02-05T15:29:57.605Z,1.98
2023-02-05T15:32:30.316Z,1.98
2023-02-05T15:35:07.768Z,2.04
2023-02-05T15:37:49.800Z,1.98
2023-02-05T15:40:25.175Z,1.92
2023-02-05T15:43:19.662Z,1.98
2023-02-05T15:45:46.895Z,2.00
2023-02-05T15:48:17.780Z,1.96
2023-02-05T15:50:58.632Z,1.95
2023-02-05T15:53:39.264Z,1.99
2023-02-05T15:56:26.326Z,1.95
2023-02-05T15:58:57.800Z,1.93
2023-02-05T16:01:46.094Z,1.94
2023-02-05T16:04:19.972Z,1.97
2023-02-05T16:06:46.840Z,1.97
2023-02-05T16:09:25.619Z,1.92
2023-02-05T16:11:52.360Z,1.93
2023-02-05T16:14:21.713Z,1.89
2023-02-05T16:16:51.146Z,1.93
2023-02-05T16:19:23.484Z,1.96
2023-02-05T16:22:14.777Z,1.96
2023-02-05T16:24:43.832Z,1.95
2023-02-05T16:27:26.351Z,1.99
2023-02-05T16:29:57.209Z,1.96
2023-02-05T16:32:44.106Z,1.97
2023-02-05T16:35:30.434Z,1.98
2023-02-05T16:37:57.404Z,1.97
2023-02-05T16:40:35.689Z,1.97
2023-02-05T16:43:25.623Z,1.98
2023-02-05T16:46:31.061Z,2.01
2023-02-05T16:49:18.006Z,2.04
2023-02-05T16:51:47.746Z,2.04
2023-02-05T16:54:14.406Z,2.04
2023-02-05T16:56:55.274Z,2.04
2023-02-05T16:59:26.390Z,2.10
2023-02-05T17:01:53.824Z,2.06
2023-02-05T17:04:27.373Z,2.04
2023-02-05T17:06:59.308Z,2.04
2023-02-05T17:09:31.075Z,2.07
2023-02-05T17:12:25.380Z,2.08
2023-02-05T17:14:56.469Z,2.12
2023-02-05T17:17:25.208Z,2.10
2023-02-05T17:20:07.365Z,2.16
2023-02-05T17:22:34.786Z,2.10
2023-02-05T17:25:02.258Z,2.15
2023-02-05T17:27:37.667Z,2.12
2023-02-05T17:30:06.749Z,2.13
2023-02-05T17:32:33.625Z,2.13
2023-02-05T17:35:00.503Z,2.12
2023-02-05T17:37:27.158Z,2.16
2023-02-05T17:39:55.507Z,2.18
2023-02-05T17:42:25.186Z,2.23
2023-02-05T17:44:53.668Z,2.23
2023-02-05T17:47:20.413Z,2.24
2023-02-05T17:49:47.770Z,2.22
2023-02-05T17:52:17.865Z,2.23
2023-02-05T17:54:46.272Z,2.26
2023-02-05T17:57:18.900Z,2.23
2023-02-05T17:59:46.769Z,2.26
2023-02-05T18:02:14.205Z,2.28
2023-02-05T18:04:42.103Z,2.21
2023-02-05T18:07:36.993Z,2.26
2023-02-05T18:10:05.465Z,2.25
2023-02-05T18:12:32.682Z,2.25
2023-02-05T18:14:59.440Z,2.27
2023-02-05T18:17:26.100Z,2.24
2023-02-05T18:19:52.870Z,2.25
2023-02-05T18:22:19.867Z,2.25
2023-02-05T18:24:46.578Z,2.23
2023-02-05T18:27:13.280Z,2.24
2023-02-05T18:29:41.258Z,2.24
2023-02-05T18:32:08.902Z,2.29
2023-02-05T18:34:35.835Z,2.27
2023-02-05T18:37:02.559Z,2.27
2023-02-05T18:39:29.626Z,2.26
2023-02-05T18:41:57.600Z,2.23
2023-02-05T18:44:25.632Z,2.23
2023-02-05T18:46:53.210Z,2.25
2023-02-05T18:49:20.178Z,2.23
2023-02-05T18:51:46.905Z,2.20
2023-02-05T18:54:13.652Z,2.19
2023-02-05T18:56:40.388Z,2.15
2023-02-05T18:59:08.407Z,2.07
2023-02-05T19:01:38.350Z,1.92
2023-02-05T19:04:13.006Z,1.95
2023-02-05T19:06:53.296Z,1.91
2023-02-05T19:09:21.855Z,1.95
2023-02-05T19:11:48.939Z,1.98
2023-02-05T19:14:18.271Z,2.06
2023-02-05T19:16:47.023Z,2.00
2023-02-05T19:19:22.091Z,2.08
2023-02-05T19:21:54.231Z,2.03
2023-02-05T19:24:22.001Z,2.09
2023-02-05T19:26:50.854Z,2.07
2023-02-05T19:29:20.021Z,1.99
2023-02-05T19:31:47.269Z,1.90
2023-02-05T19:34:14.108Z,1.86
2023-02-05T19:36:40.968Z,1.75
2023-02-05T19:39:10.601Z,1.69
2023-02-05T19:41:37.860Z,1.68
2023-02-05T19:44:07.387Z,1.74
2023-02-05T19:46:48.790Z,1.73
2023-02-05T19:49:20.584Z,1.71
2023-02-05T19:51:49.237Z,1.68
2023-02-05T19:54:16.308Z,1.66
2023-02-05T19:56:43.924Z,1.61
2023-02-05T19:59:11.741Z,1.47
2023-02-05T20:01:40.794Z,1.43
2023-02-05T20:04:19.405Z,1.35
2023-02-05T20:06:46.943Z,1.37
2023-02-05T20:09:15.068Z,1.39
2023-02-05T20:11:43.723Z,1.25
2023-02-05T20:14:11.374Z,1.37
2023-02-05T20:16:40.384Z,1.35
2023-02-05T20:19:10.114Z,1.18
2023-02-05T20:21:37.297Z,1.18
2023-02-05T20:24:04.729Z,1.12
2023-02-05T20:26:31.904Z,1.28
2023-02-05T20:29:17.462Z,1.26
2023-02-05T20:31:49.561Z,1.33
2023-02-05T20:34:19.169Z,1.40
2023-02-05T20:36:51.205Z,1.39
2023-02-05T20:39:19.094Z,1.35
2023-02-05T20:41:47.069Z,1.22
2023-02-05T20:44:14.277Z,1.12
2023-02-05T20:46:41.441Z,1.03
2023-02-05T20:49:09.083Z,0.93
2023-02-05T20:51:36.045Z,0.87
2023-02-05T20:54:03.010Z,0.79
2023-02-05T20:56:30.599Z,0.71
2023-02-05T20:59:02.738Z,0.61
2023-02-05T21:01:31.244Z,0.55
2023-02-05T21:04:01.037Z,0.50
2023-02-05T21:06:36.058Z,0.46
2023-02-05T21:09:03.752Z,0.37
2023-02-05T21:11:31.174Z,0.36
2023-02-05T21:13:58.883Z,0.29
2023-02-05T21:16:28.006Z,0.08
2023-02-05T21:18:55.998Z,-0.17
2023-02-05T21:21:25.483Z,-0.12
2023-02-05T21:24:00.323Z,-0.16
2023-02-05T21:26:28.549Z,-0.10
2023-02-05T21:28:57.404Z,-0.09
2023-02-05T21:31:25.838Z,-0.17
2023-02-05T21:33:52.525Z,-0.18
2023-02-05T21:36:20.413Z,-0.25
2023-02-05T21:38:47.115Z,-0.43
2023-02-05T21:41:17.412Z,-0.23
2023-02-05T21:43:51.809Z,-0.24
2023-02-05T21:46:19.097Z,-0.04
2023-02-05T21:48:50.930Z,-0.05
2023-02-05T21:51:20.046Z,0.06
2023-02-05T21:53:46.769Z,0.02
2023-02-05T21:56:16.580Z,0.00
2023-02-05T21:58:43.637Z,-0.01
2023-02-05T22:01:10.257Z,-0.06
2023-02-05T22:03:36.955Z,-0.10
2023-02-05T22:06:06.757Z,-0.15
2023-02-05T22:08:38.407Z,-0.05
2023-02-05T22:11:07.807Z,0.00
2023-02-05T22:13:37.257Z,-0.03
2023-02-05T22:16:07.864Z,-0.03
2023-02-05T22:18:35.749Z,-0.17
2023-02-05T22:21:13.703Z,-0.21
2023-02-05T22:23:42.532Z,-0.27
2023-02-05T22:26:10.337Z,-0.59
2023-02-05T22:28:37.370Z,-0.68
2023-02-05T22:31:10.473Z,-0.55
2023-02-05T22:33:39.039Z,-0.37
2023-02-05T22:36:08.043Z,-0.18
2023-02-05T22:38:37.064Z,-0.14
2023-02-05T22:41:15.753Z,-0.03
2023-02-05T22:43:42.690Z,0.01
2023-02-05T22:46:18.035Z,0.00
2023-02-05T22:48:47.409Z,-0.01
2023-02-05T22:51:19.886Z,-0.02
2023-02-05T22:53:48.802Z,-0.03
2023-02-05T22:56:16.615Z,0.02
2023-02-05T22:58:46.555Z,-0.17
2023-02-05T23:01:16.181Z,-0.17
2023-02-05T23:03:43.561Z,-0.11
2023-02-05T23:06:15.087Z,-0.05
2023-02-05T23:08:42.957Z,-0.09
2023-02-05T23:11:15.654Z,0.15
2023-02-05T23:13:42.899Z,0.21
2023-02-05T23:16:15.579Z,0.19
2023-02-05T23:18:42.973Z,0.14
2023-02-05T23:21:12.667Z,0.25
2023-02-05T23:23:40.058Z,0.18
2023-02-05T23:26:12.691Z,0.12
2023-02-05T23:28:39.839Z,0.01
2023-02-05T23:31:07.094Z,-0.09
2023-02-05T23:33:34.962Z,-0.21
2023-02-05T23:36:02.733Z,-0.48
2023-02-05T23:38:29.967Z,-0.64
2023-02-05T23:40:57.406Z,-0.63
2023-02-05T23:43:24.821Z,-0.39
2023-02-05T23:45:52.987Z,-0.28
2023-02-05T23:48:20.169Z,-0.26
2023-02-05T23:50:52.154Z,-0.29
2023-02-05T23:53:23.188Z,-0.28
2023-02-05T23:55:51.921Z,-0.32
2023-02-05T23:58:20.237Z,-0.31
